createdAt,value
2023-03-22T00:00:21.038Z,30.55
2023-03-22T00:03:24.930Z,30.87
2023-03-22T00:09:29.418Z,26.00
2023-03-22T00:12:32.096Z,36.13
2023-03-22T00:15:35.134Z,42.72
2023-03-22T00:18:37.948Z,42.53
2023-03-22T00:21:40.667Z,36.22
2023-03-22T00:24:43.521Z,40.10
2023-03-22T00:27:46.205Z,38.55
2023-03-22T00:34:02.030Z,37.33
2023-03-22T00:37:04.987Z,40.05
2023-03-22T00:40:11.146Z,38.97
2023-03-22T00:43:14.429Z,42.80
2023-03-22T00:46:19.553Z,27.80
2023-03-22T00:49:22.369Z,31.30
2023-03-22T00:52:25.517Z,30.25
2023-03-22T00:55:28.200Z,30.90
2023-03-22T00:58:31.047Z,28.73
2023-03-22T01:01:33.733Z,33.28
2023-03-22T01:04:36.739Z,28.63
2023-03-22T01:07:41.779Z,32.88
2023-03-22T01:10:45.036Z,39.40
2023-03-22T01:13:48.160Z,37.33
2023-03-22T01:19:52.725Z,32.70
2023-03-22T01:22:55.655Z,31.27
2023-03-22T01:25:58.372Z,29.30
2023-03-22T01:29:01.110Z,28.92
2023-03-22T01:32:04.399Z,28.45
2023-03-22T01:35:07.482Z,26.43
2023-03-22T01:38:10.327Z,26.37
2023-03-22T01:41:12.977Z,26.73
2023-03-22T01:47:19.877Z,25.35
2023-03-22T01:50:24.624Z,24.30
2023-03-22T01:53:27.503Z,28.73
2023-03-22T01:56:33.293Z,18.30
2023-03-22T01:59:36.831Z,19.62
2023-03-22T02:02:39.743Z,21.37
2023-03-22T02:08:43.967Z,21.73
2023-03-22T02:11:51.538Z,20.33
2023-03-22T02:15:05.422Z,22.27
2023-03-22T02:18:45.803Z,22.23
2023-03-22T02:22:10.030Z,22.70
2023-03-22T02:25:42.067Z,19.45
2023-03-22T02:29:03.767Z,19.15
2023-03-22T02:32:25.657Z,23.55
2023-03-22T02:35:33.918Z,24.35
2023-03-22T02:39:10.585Z,19.20
2023-03-22T02:42:23.567Z,22.10
2023-03-22T02:45:35.223Z,24.87
2023-03-22T02:48:56.345Z,19.85
2023-03-22T02:52:04.045Z,25.52
2023-03-22T02:58:35.172Z,21.55
2023-03-22T03:01:41.433Z,22.95
2023-03-22T03:04:47.163Z,24.00
2023-03-22T03:07:56.252Z,23.20
2023-03-22T03:14:00.577Z,22.60
2023-03-22T03:17:37.222Z,21.85
2023-03-22T03:21:08.926Z,22.30
2023-03-22T03:24:27.746Z,21.23
2023-03-22T03:27:40.439Z,22.53
2023-03-22T03:34:00.488Z,23.40
2023-03-22T03:37:12.369Z,17.73
2023-03-22T03:40:22.229Z,19.60
2023-03-22T03:43:25.924Z,21.70
2023-03-22T03:46:29.540Z,24.10
2023-03-22T03:49:32.639Z,25.73
2023-03-22T03:52:35.909Z,25.23
2023-03-22T03:55:38.704Z,27.10
2023-03-22T03:58:41.735Z,25.13
2023-03-22T04:01:52.832Z,30.05
2023-03-22T04:04:55.856Z,29.00
2023-03-22T04:07:58.537Z,30.10
2023-03-22T04:14:06.209Z,26.37
2023-03-22T04:20:12.950Z,32.30
2023-03-22T04:23:16.368Z,36.50
2023-03-22T04:26:19.085Z,28.80
2023-03-22T04:29:23.114Z,114.83
2023-03-22T04:32:25.794Z,34.58
2023-03-22T04:35:28.371Z,34.70
2023-03-22T04:38:31.192Z,27.60
2023-03-22T04:41:34.978Z,23.27
2023-03-22T04:44:38.418Z,27.67
2023-03-22T04:47:41.261Z,22.02
2023-03-22T04:50:44.047Z,24.10
2023-03-22T04:53:47.235Z,27.15
2023-03-22T04:56:50.751Z,29.98
2023-03-22T04:59:53.492Z,33.37
2023-03-22T05:02:57.422Z,24.25
2023-03-22T05:06:02.105Z,22.42
2023-03-22T05:09:04.953Z,21.80
2023-03-22T05:12:07.890Z,20.80
2023-03-22T05:15:10.761Z,20.07
2023-03-22T05:18:14.601Z,15.88
2023-03-22T05:24:24.197Z,19.23
2023-03-22T05:27:31.858Z,19.58
2023-03-22T05:30:34.548Z,24.63
2023-03-22T05:33:37.307Z,15.57
2023-03-22T05:36:40.004Z,16.35
2023-03-22T05:39:42.807Z,15.95
2023-03-22T05:42:45.943Z,20.17
2023-03-22T05:48:51.488Z,15.55
2023-03-22T05:51:54.688Z,14.68
2023-03-22T06:01:09.352Z,18.47
2023-03-22T06:04:11.982Z,17.67
2023-03-22T06:10:17.258Z,17.08
2023-03-22T06:13:20.746Z,15.45
2023-03-22T06:16:23.600Z,17.13
2023-03-22T06:19:27.051Z,18.30
2023-03-22T06:22:31.922Z,17.40
2023-03-22T06:25:34.722Z,16.55
2023-03-22T06:28:38.168Z,15.88
2023-03-22T06:31:41.185Z,21.70
2023-03-22T06:34:44.281Z,27.20
2023-03-22T06:37:47.131Z,17.75
2023-03-22T06:40:49.855Z,15.38
2023-03-22T06:43:52.732Z,15.40
2023-03-22T06:46:55.654Z,19.23
2023-03-22T06:49:58.479Z,20.62
2023-03-22T06:53:01.444Z,16.42
2023-03-22T06:56:04.735Z,16.70
2023-03-22T06:59:07.528Z,19.15
2023-03-22T07:02:14.048Z,17.87
2023-03-22T07:05:16.745Z,17.48
2023-03-22T07:08:19.715Z,17.58
2023-03-22T07:11:22.748Z,18.45
2023-03-22T07:14:30.429Z,17.60
2023-03-22T07:17:33.533Z,15.30
2023-03-22T07:20:41.735Z,15.48
2023-03-22T07:23:44.668Z,15.63
2023-03-22T07:26:47.387Z,14.48
2023-03-22T07:29:50.099Z,13.93
2023-03-22T07:32:53.167Z,15.43
2023-03-22T07:35:56.099Z,15.30
2023-03-22T07:38:59.223Z,13.68
2023-03-22T07:42:03.725Z,18.58
2023-03-22T07:45:07.092Z,13.77
2023-03-22T07:48:12.110Z,15.20
2023-03-22T07:51:14.760Z,14.35
2023-03-22T07:54:32.082Z,17.12
2023-03-22T07:57:36.077Z,17.02
2023-03-22T08:00:39.083Z,16.25
2023-03-22T08:03:42.020Z,17.33
2023-03-22T08:06:46.685Z,14.82
2023-03-22T08:09:49.741Z,14.52
2023-03-22T08:12:52.402Z,20.67
2023-03-22T08:15:55.218Z,14.07
2023-03-22T08:18:58.937Z,15.27
2023-03-22T08:22:03.931Z,15.80
2023-03-22T08:25:07.501Z,13.65
2023-03-22T08:28:10.920Z,21.52
2023-03-22T08:31:16.092Z,15.38
2023-03-22T08:34:19.217Z,16.57
2023-03-22T08:37:21.961Z,14.20
2023-03-22T08:40:24.555Z,11.20
2023-03-22T08:43:28.233Z,12.32
2023-03-22T08:46:31.256Z,13.27
2023-03-22T08:49:34.826Z,10.43
2023-03-22T08:52:37.838Z,13.15
2023-03-22T08:55:46.632Z,15.07
2023-03-22T08:58:49.605Z,13.15
2023-03-22T09:01:52.475Z,10.43
2023-03-22T09:04:56.367Z,12.20
2023-03-22T09:08:06.075Z,11.18
2023-03-22T09:11:10.629Z,12.52
2023-03-22T09:14:13.524Z,13.23
2023-03-22T09:17:21.246Z,11.63
2023-03-22T09:20:31.969Z,10.40
2023-03-22T09:23:37.259Z,10.45
2023-03-22T09:26:40.128Z,13.20
2023-03-22T09:29:43.011Z,8.40
2023-03-22T09:32:46.208Z,8.55
2023-03-22T09:35:49.372Z,7.43
2023-03-22T09:38:52.348Z,7.53
2023-03-22T09:41:57.984Z,8.65
2023-03-22T09:45:01.982Z,8.65
2023-03-22T09:48:27.218Z,7.20
2023-03-22T09:51:45.219Z,7.87
2023-03-22T09:54:48.257Z,10.55
2023-03-22T09:57:58.956Z,8.43
2023-03-22T10:01:46.279Z,11.88
2023-03-22T10:05:18.343Z,10.07
2023-03-22T10:08:29.771Z,10.63
2023-03-22T10:11:43.815Z,8.32
2023-03-22T10:15:09.327Z,8.10
2023-03-22T10:18:20.911Z,7.80
2023-03-22T10:21:23.732Z,9.27
2023-03-22T10:24:30.615Z,7.50
2023-03-22T10:27:34.653Z,8.30
2023-03-22T10:30:38.830Z,8.30
2023-03-22T10:33:52.954Z,7.65
2023-03-22T10:36:56.257Z,25.20
2023-03-22T10:40:01.242Z,9.07
2023-03-22T10:43:18.390Z,7.53
2023-03-22T10:46:24.819Z,9.40
2023-03-22T10:49:36.283Z,9.25
2023-03-22T10:52:51.622Z,9.75
2023-03-22T10:55:54.756Z,9.77
2023-03-22T10:58:58.471Z,8.60
2023-03-22T11:02:01.978Z,9.20
2023-03-22T11:05:07.376Z,9.50
2023-03-22T11:08:15.119Z,8.55
2023-03-22T11:11:26.348Z,10.50
2023-03-22T11:14:38.242Z,9.00
2023-03-22T11:17:42.750Z,8.98
2023-03-22T11:21:01.587Z,8.80
2023-03-22T11:24:06.055Z,7.68
2023-03-22T11:27:21.598Z,9.13
2023-03-22T11:30:26.273Z,8.15
2023-03-22T11:33:29.312Z,7.93
2023-03-22T11:36:33.237Z,10.00
2023-03-22T11:39:36.163Z,8.23
2023-03-22T11:42:39.551Z,9.80
2023-03-22T11:45:47.327Z,10.57
2023-03-22T11:48:52.379Z,9.50
2023-03-22T11:51:56.576Z,8.38
2023-03-22T11:55:00.436Z,8.50
2023-03-22T11:58:06.277Z,8.97
2023-03-22T12:01:19.924Z,10.50
2023-03-22T12:04:28.088Z,9.20
2023-03-22T12:07:32.283Z,9.27
2023-03-22T12:10:48.344Z,8.55
2023-03-22T12:13:58.855Z,9.80
2023-03-22T12:17:24.538Z,9.02
2023-03-22T12:20:43.017Z,9.40
2023-03-22T12:23:46.078Z,8.20
2023-03-22T12:26:49.514Z,8.43
2023-03-22T12:30:00.168Z,9.17
2023-03-22T12:33:17.302Z,9.00
2023-03-22T12:36:24.170Z,8.60
2023-03-22T12:39:31.647Z,10.73
2023-03-22T12:42:58.988Z,7.93
2023-03-22T12:46:05.070Z,7.27
2023-03-22T12:49:36.070Z,7.40
2023-03-22T12:52:50.941Z,7.62
2023-03-22T12:55:55.754Z,7.87
2023-03-22T12:59:03.988Z,10.68
2023-03-22T13:02:15.078Z,10.30
2023-03-22T13:05:19.307Z,8.60
2023-03-22T13:08:23.100Z,9.25
2023-03-22T13:11:26.483Z,8.00
2023-03-22T13:14:49.747Z,7.87
2023-03-22T13:17:57.049Z,9.03
2023-03-22T13:21:19.308Z,8.20
2023-03-22T13:24:23.382Z,8.02
2023-03-22T13:27:38.091Z,8.30
2023-03-22T13:30:58.215Z,8.10
2023-03-22T13:34:04.276Z,7.77
2023-03-22T13:37:35.166Z,7.05
2023-03-22T13:40:44.276Z,8.18
2023-03-22T13:43:50.449Z,6.87
2023-03-22T13:46:54.110Z,7.82
2023-03-22T13:50:24.321Z,7.67
2023-03-22T13:53:31.119Z,7.30
2023-03-22T13:57:01.362Z,6.57
2023-03-22T14:00:15.558Z,25.00
2023-03-22T14:03:30.438Z,6.45
2023-03-22T14:06:39.327Z,7.63
2023-03-22T14:09:54.816Z,7.00
2023-03-22T14:13:06.357Z,7.30
2023-03-22T14:16:14.283Z,6.82
2023-03-22T14:19:21.819Z,7.25
